Отчёт УТП Минеральные Воды 13.06.2021

13 Июня 2021 года с 07 до 09 UTC в аэропорту Минеральных Вод (URMM) прошли учебно-тренировочные полеты в сети IVAO.

В работе был Ростов-Контроль, Минводы-Подход и Минводы-Старт.

Погода во время УТП:

METAR URMM 130830Z VRB01MPS 9999 BKN020CB 19/15 Q1013 
R12/190160 NOSIG RMK MT OBSC QFE732/0976=

Движение в воздухе было свободным, 2 борта курсантов выполняли упражнения и 3 борта трафика.

Все курсанты справились со своими задачами. После полётов курсантов ожидал разбор полётов, где каждый услышал замечания от Инструктора.